sensor_id;sensor_type;location;lat;lon;timestamp;P1;durP1;ratioP1;P2;durP2;ratioP2
69417;SDS011;56610;48.872;2.400;2023-07-13T00:01:44;2.83;;;1.33;;
69417;SDS011;56610;48.872;2.400;2023-07-13T00:04:11;6.35;;;1.42;;
69417;SDS011;56610;48.872;2.400;2023-07-13T00:06:37;3.72;;;1.40;;
69417;SDS011;56610;48.872;2.400;2023-07-13T00:09:02;4.15;;;1.40;;
69417;SDS011;56610;48.872;2.400;2023-07-13T00:11:28;1.88;;;1.13;;
69417;SDS011;56610;48.872;2.400;2023-07-13T00:13:53;3.45;;;1.42;;
69417;SDS011;56610;48.872;2.400;2023-07-13T00:16:19;3.13;;;1.40;;
69417;SDS011;56610;48.872;2.400;2023-07-13T00:18:45;4.55;;;1.50;;
69417;SDS011;56610;48.872;2.400;2023-07-13T00:21:11;2.80;;;1.20;;
69417;SDS011;56610;48.872;2.400;2023-07-13T00:23:38;3.40;;;1.17;;
69417;SDS011;56610;48.872;2.400;2023-07-13T00:26:08;5.25;;;1.38;;
69417;SDS011;56610;48.872;2.400;2023-07-13T00:28:35;3.33;;;1.10;;
69417;SDS011;56610;48.872;2.400;2023-07-13T00:31:01;3.28;;;1.38;;
69417;SDS011;56610;48.872;2.400;2023-07-13T00:33:27;4.70;;;1.20;;
69417;SDS011;56610;48.872;2.400;2023-07-13T00:35:54;2.80;;;1.20;;
69417;SDS011;56610;48.872;2.400;2023-07-13T00:38:20;4.07;;;1.17;;
69417;SDS011;56610;48.872;2.400;2023-07-13T00:40:47;3.30;;;1.10;;
69417;SDS011;56610;48.872;2.400;2023-07-13T00:43:15;4.00;;;1.20;;
69417;SDS011;56610;48.872;2.400;2023-07-13T00:48:07;4.40;;;1.02;;
69417;SDS011;56610;48.872;2.400;2023-07-13T00:50:34;3.28;;;1.15;;
69417;SDS011;56610;48.872;2.400;2023-07-13T00:52:59;3.30;;;1.20;;
69417;SDS011;56610;48.872;2.400;2023-07-13T00:55:25;4.07;;;1.30;;
69417;SDS011;56610;48.872;2.400;2023-07-13T00:57:51;2.85;;;1.10;;
69417;SDS011;56610;48.872;2.400;2023-07-13T01:00:18;2.97;;;1.10;;
69417;SDS011;56610;48.872;2.400;2023-07-13T01:02:46;2.10;;;1.15;;
69417;SDS011;56610;48.872;2.400;2023-07-13T01:05:13;4.50;;;1.47;;
69417;SDS011;56610;48.872;2.400;2023-07-13T01:07:44;2.28;;;0.90;;
69417;SDS011;56610;48.872;2.400;2023-07-13T01:10:11;3.45;;;1.13;;
69417;SDS011;56610;48.872;2.400;2023-07-13T01:12:38;3.85;;;1.60;;
69417;SDS011;56610;48.872;2.400;2023-07-13T01:15:04;10.10;;;6.75;;
69417;SDS011;56610;48.872;2.400;2023-07-13T01:17:30;10.27;;;7.35;;
69417;SDS011;56610;48.872;2.400;2023-07-13T01:20:00;10.48;;;6.38;;
69417;SDS011;56610;48.872;2.400;2023-07-13T01:22:26;8.15;;;5.88;;
69417;SDS011;56610;48.872;2.400;2023-07-13T01:24:52;7.30;;;4.22;;
69417;SDS011;56610;48.872;2.400;2023-07-13T01:27:23;5.38;;;2.50;;
69417;SDS011;56610;48.872;2.400;2023-07-13T01:29:50;5.90;;;3.40;;
69417;SDS011;56610;48.872;2.400;2023-07-13T01:32:18;5.70;;;2.25;;
69417;SDS011;56610;48.872;2.400;2023-07-13T01:34:46;7.55;;;2.13;;
69417;SDS011;56610;48.872;2.400;2023-07-13T01:37:12;3.25;;;1.60;;
69417;SDS011;56610;48.872;2.400;2023-07-13T01:39:38;4.30;;;1.60;;
69417;SDS011;56610;48.872;2.400;2023-07-13T01:42:03;3.15;;;1.42;;
69417;SDS011;56610;48.872;2.400;2023-07-13T01:44:29;4.95;;;1.80;;
69417;SDS011;56610;48.872;2.400;2023-07-13T01:46:55;4.57;;;1.67;;
69417;SDS011;56610;48.872;2.400;2023-07-13T01:49:21;2.45;;;1.33;;
69417;SDS011;56610;48.872;2.400;2023-07-13T01:51:46;3.05;;;1.30;;
69417;SDS011;56610;48.872;2.400;2023-07-13T01:54:12;4.07;;;1.50;;
69417;SDS011;56610;48.872;2.400;2023-07-13T01:56:37;4.40;;;1.40;;
69417;SDS011;56610;48.872;2.400;2023-07-13T01:59:03;3.28;;;1.00;;
69417;SDS011;56610;48.872;2.400;2023-07-13T02:01:29;3.42;;;1.20;;
69417;SDS011;56610;48.872;2.400;2023-07-13T02:03:54;3.78;;;1.33;;
69417;SDS011;56610;48.872;2.400;2023-07-13T02:06:20;1.83;;;0.90;;
69417;SDS011;56610;48.872;2.400;2023-07-13T02:08:45;4.25;;;1.45;;
69417;SDS011;56610;48.872;2.400;2023-07-13T02:11:11;3.35;;;1.20;;
69417;SDS011;56610;48.872;2.400;2023-07-13T02:13:37;2.55;;;1.10;;
69417;SDS011;56610;48.872;2.400;2023-07-13T02:16:03;4.43;;;1.15;;
69417;SDS011;56610;48.872;2.400;2023-07-13T02:18:28;3.53;;;1.20;;
69417;SDS011;56610;48.872;2.400;2023-07-13T02:20:54;2.65;;;1.17;;
69417;SDS011;56610;48.872;2.400;2023-07-13T02:23:19;2.50;;;1.30;;
69417;SDS011;56610;48.872;2.400;2023-07-13T02:25:45;3.97;;;1.25;;
69417;SDS011;56610;48.872;2.400;2023-07-13T02:28:11;1.60;;;0.73;;
69417;SDS011;56610;48.872;2.400;2023-07-13T02:30:37;4.53;;;1.20;;
69417;SDS011;56610;48.872;2.400;2023-07-13T02:33:03;4.07;;;1.00;;
69417;SDS011;56610;48.872;2.400;2023-07-13T02:35:29;3.25;;;1.13;;
69417;SDS011;56610;48.872;2.400;2023-07-13T02:37:55;3.15;;;0.98;;
69417;SDS011;56610;48.872;2.400;2023-07-13T02:40:21;5.50;;;1.00;;
69417;SDS011;56610;48.872;2.400;2023-07-13T02:42:46;2.63;;;1.15;;
69417;SDS011;56610;48.872;2.400;2023-07-13T02:45:12;3.63;;;1.10;;
69417;SDS011;56610;48.872;2.400;2023-07-13T02:47:40;3.22;;;1.40;;
69417;SDS011;56610;48.872;2.400;2023-07-13T02:50:06;3.75;;;1.00;;
69417;SDS011;56610;48.872;2.400;2023-07-13T02:52:32;3.25;;;1.38;;
69417;SDS011;56610;48.872;2.400;2023-07-13T02:54:57;3.17;;;1.20;;
69417;SDS011;56610;48.872;2.400;2023-07-13T02:57:23;4.25;;;1.20;;
69417;SDS011;56610;48.872;2.400;2023-07-13T02:59:49;5.00;;;1.63;;
69417;SDS011;56610;48.872;2.400;2023-07-13T03:02:15;3.75;;;1.10;;
69417;SDS011;56610;48.872;2.400;2023-07-13T03:04:41;3.63;;;1.10;;
69417;SDS011;56610;48.872;2.400;2023-07-13T03:07:07;3.97;;;1.10;;
69417;SDS011;56610;48.872;2.400;2023-07-13T03:09:33;2.00;;;1.00;;
69417;SDS011;56610;48.872;2.400;2023-07-13T03:12:00;3.58;;;1.00;;
69417;SDS011;56610;48.872;2.400;2023-07-13T03:14:25;2.15;;;0.80;;
69417;SDS011;56610;48.872;2.400;2023-07-13T03:16:51;3.33;;;1.23;;
69417;SDS011;56610;48.872;2.400;2023-07-13T03:19:17;2.65;;;0.80;;
69417;SDS011;56610;48.872;2.400;2023-07-13T03:21:43;5.43;;;1.23;;
69417;SDS011;56610;48.872;2.400;2023-07-13T03:24:09;2.88;;;0.90;;
69417;SDS011;56610;48.872;2.400;2023-07-13T03:26:35;2.92;;;0.93;;
69417;SDS011;56610;48.872;2.400;2023-07-13T03:29:00;2.47;;;1.15;;
69417;SDS011;56610;48.872;2.400;2023-07-13T03:31:27;2.97;;;1.08;;
69417;SDS011;56610;48.872;2.400;2023-07-13T03:33:55;3.13;;;1.17;;
69417;SDS011;56610;48.872;2.400;2023-07-13T03:36:23;3.35;;;1.15;;
69417;SDS011;56610;48.872;2.400;2023-07-13T03:38:54;1.77;;;0.90;;
69417;SDS011;56610;48.872;2.400;2023-07-13T03:41:24;2.97;;;0.85;;
69417;SDS011;56610;48.872;2.400;2023-07-13T03:43:51;2.88;;;1.05;;
69417;SDS011;56610;48.872;2.400;2023-07-13T03:46:17;2.72;;;1.10;;
69417;SDS011;56610;48.872;2.400;2023-07-13T03:48:44;2.13;;;0.80;;
69417;SDS011;56610;48.872;2.400;2023-07-13T03:51:12;2.35;;;0.93;;
69417;SDS011;56610;48.872;2.400;2023-07-13T03:53:42;2.38;;;0.77;;
69417;SDS011;56610;48.872;2.400;2023-07-13T03:56:08;2.50;;;0.93;;
69417;SDS011;56610;48.872;2.400;2023-07-13T03:58:36;1.65;;;0.80;;
69417;SDS011;56610;48.872;2.400;2023-07-13T04:01:04;2.78;;;1.10;;
69417;SDS011;56610;48.872;2.400;2023-07-13T04:05:58;2.75;;;0.88;;
69417;SDS011;56610;48.872;2.400;2023-07-13T04:08:26;4.10;;;1.08;;
69417;SDS011;56610;48.872;2.400;2023-07-13T04:10:52;2.50;;;0.98;;
69417;SDS011;56610;48.872;2.400;2023-07-13T04:13:18;3.40;;;0.90;;
69417;SDS011;56610;48.872;2.400;2023-07-13T04:15:43;2.50;;;0.90;;
69417;SDS011;56610;48.872;2.400;2023-07-13T04:18:09;4.10;;;1.40;;
69417;SDS011;56610;48.872;2.400;2023-07-13T04:20:34;2.72;;;1.00;;
69417;SDS011;56610;48.872;2.400;2023-07-13T04:23:00;3.33;;;1.00;;
69417;SDS011;56610;48.872;2.400;2023-07-13T04:25:26;3.63;;;1.27;;
69417;SDS011;56610;48.872;2.400;2023-07-13T04:27:52;2.55;;;0.85;;
69417;SDS011;56610;48.872;2.400;2023-07-13T04:30:18;2.55;;;1.00;;
69417;SDS011;56610;48.872;2.400;2023-07-13T04:32:44;2.53;;;1.00;;
69417;SDS011;56610;48.872;2.400;2023-07-13T04:35:09;3.42;;;1.08;;
69417;SDS011;56610;48.872;2.400;2023-07-13T04:37:35;2.53;;;0.90;;
69417;SDS011;56610;48.872;2.400;2023-07-13T04:40:01;4.97;;;1.30;;
69417;SDS011;56610;48.872;2.400;2023-07-13T04:42:28;3.55;;;1.10;;
69417;SDS011;56610;48.872;2.400;2023-07-13T04:44:54;3.17;;;1.30;;
69417;SDS011;56610;48.872;2.400;2023-07-13T04:47:20;4.75;;;1.35;;
69417;SDS011;56610;48.872;2.400;2023-07-13T04:49:46;3.55;;;1.10;;
69417;SDS011;56610;48.872;2.400;2023-07-13T04:52:12;2.55;;;1.17;;
69417;SDS011;56610;48.872;2.400;2023-07-13T04:54:40;2.30;;;1.08;;
69417;SDS011;56610;48.872;2.400;2023-07-13T04:57:06;2.88;;;1.27;;
69417;SDS011;56610;48.872;2.400;2023-07-13T04:59:32;2.75;;;1.00;;
69417;SDS011;56610;48.872;2.400;2023-07-13T05:01:58;2.25;;;1.02;;
69417;SDS011;56610;48.872;2.400;2023-07-13T05:04:23;2.28;;;1.08;;
69417;SDS011;56610;48.872;2.400;2023-07-13T05:06:49;1.88;;;0.90;;
69417;SDS011;56610;48.872;2.400;2023-07-13T05:09:15;3.90;;;1.10;;
69417;SDS011;56610;48.872;2.400;2023-07-13T05:11:41;2.88;;;0.90;;
69417;SDS011;56610;48.872;2.400;2023-07-13T05:14:08;2.95;;;1.10;;
69417;SDS011;56610;48.872;2.400;2023-07-13T05:16:37;2.22;;;1.10;;
69417;SDS011;56610;48.872;2.400;2023-07-13T05:19:02;3.47;;;1.33;;
69417;SDS011;56610;48.872;2.400;2023-07-13T05:21:28;2.30;;;1.10;;
69417;SDS011;56610;48.872;2.400;2023-07-13T05:23:54;3.83;;;1.42;;
69417;SDS011;56610;48.872;2.400;2023-07-13T05:26:19;4.32;;;1.38;;
69417;SDS011;56610;48.872;2.400;2023-07-13T05:28:45;2.97;;;1.38;;
69417;SDS011;56610;48.872;2.400;2023-07-13T05:31:11;4.18;;;1.50;;
69417;SDS011;56610;48.872;2.400;2023-07-13T05:33:37;3.33;;;1.15;;
69417;SDS011;56610;48.872;2.400;2023-07-13T05:36:02;3.40;;;1.20;;
69417;SDS011;56610;48.872;2.400;2023-07-13T05:38:28;4.22;;;1.42;;
69417;SDS011;56610;48.872;2.400;2023-07-13T05:40:55;3.97;;;1.58;;
69417;SDS011;56610;48.872;2.400;2023-07-13T05:43:21;4.72;;;1.23;;
69417;SDS011;56610;48.872;2.400;2023-07-13T05:45:48;2.70;;;1.30;;
69417;SDS011;56610;48.872;2.400;2023-07-13T05:48:14;3.70;;;1.30;;
69417;SDS011;56610;48.872;2.400;2023-07-13T05:50:40;3.67;;;1.23;;
69417;SDS011;56610;48.872;2.400;2023-07-13T05:53:06;3.67;;;1.35;;
69417;SDS011;56610;48.872;2.400;2023-07-13T05:55:31;4.50;;;1.50;;
69417;SDS011;56610;48.872;2.400;2023-07-13T05:57:57;4.53;;;1.58;;
69417;SDS011;56610;48.872;2.400;2023-07-13T06:00:24;2.70;;;1.40;;
69417;SDS011;56610;48.872;2.400;2023-07-13T06:02:50;2.92;;;1.27;;
69417;SDS011;56610;48.872;2.400;2023-07-13T06:05:16;4.43;;;1.38;;
69417;SDS011;56610;48.872;2.400;2023-07-13T06:07:41;4.38;;;1.58;;
69417;SDS011;56610;48.872;2.400;2023-07-13T06:10:07;5.47;;;1.48;;
69417;SDS011;56610;48.872;2.400;2023-07-13T06:12:33;2.78;;;1.83;;
69417;SDS011;56610;48.872;2.400;2023-07-13T06:14:59;4.10;;;1.27;;
69417;SDS011;56610;48.872;2.400;2023-07-13T06:17:24;5.38;;;1.50;;
69417;SDS011;56610;48.872;2.400;2023-07-13T06:19:50;4.07;;;1.35;;
69417;SDS011;56610;48.872;2.400;2023-07-13T06:22:15;3.63;;;1.38;;
69417;SDS011;56610;48.872;2.400;2023-07-13T06:24:41;2.72;;;1.30;;
69417;SDS011;56610;48.872;2.400;2023-07-13T06:27:07;6.32;;;1.35;;
69417;SDS011;56610;48.872;2.400;2023-07-13T06:29:32;2.65;;;1.45;;
69417;SDS011;56610;48.872;2.400;2023-07-13T06:31:58;4.00;;;1.52;;
69417;SDS011;56610;48.872;2.400;2023-07-13T06:34:23;3.85;;;1.45;;
69417;SDS011;56610;48.872;2.400;2023-07-13T06:36:49;4.32;;;1.60;;
69417;SDS011;56610;48.872;2.400;2023-07-13T06:39:15;3.30;;;1.50;;
69417;SDS011;56610;48.872;2.400;2023-07-13T06:41:40;3.67;;;1.30;;
69417;SDS011;56610;48.872;2.400;2023-07-13T06:44:06;2.85;;;1.60;;
69417;SDS011;56610;48.872;2.400;2023-07-13T06:46:32;4.25;;;1.40;;
69417;SDS011;56610;48.872;2.400;2023-07-13T06:48:57;4.03;;;1.55;;
69417;SDS011;56610;48.872;2.400;2023-07-13T06:51:23;2.03;;;1.20;;
69417;SDS011;56610;48.872;2.400;2023-07-13T06:53:54;3.80;;;1.60;;
69417;SDS011;56610;48.872;2.400;2023-07-13T06:56:20;4.03;;;1.30;;
69417;SDS011;56610;48.872;2.400;2023-07-13T06:58:46;5.10;;;1.40;;
69417;SDS011;56610;48.872;2.400;2023-07-13T07:01:12;3.20;;;1.50;;
69417;SDS011;56610;48.872;2.400;2023-07-13T07:03:37;6.40;;;1.63;;
69417;SDS011;56610;48.872;2.400;2023-07-13T07:06:11;5.00;;;1.67;;
69417;SDS011;56610;48.872;2.400;2023-07-13T07:08:38;4.78;;;1.80;;
69417;SDS011;56610;48.872;2.400;2023-07-13T07:11:03;3.92;;;1.50;;
69417;SDS011;56610;48.872;2.400;2023-07-13T07:13:29;6.25;;;1.50;;
69417;SDS011;56610;48.872;2.400;2023-07-13T07:15:55;3.13;;;1.40;;
69417;SDS011;56610;48.872;2.400;2023-07-13T07:18:20;6.78;;;1.70;;
69417;SDS011;56610;48.872;2.400;2023-07-13T07:20:46;9.45;;;2.15;;
69417;SDS011;56610;48.872;2.400;2023-07-13T07:23:13;9.32;;;1.83;;
69417;SDS011;56610;48.872;2.400;2023-07-13T07:25:39;4.55;;;1.42;;
69417;SDS011;56610;48.872;2.400;2023-07-13T07:28:07;6.72;;;1.67;;
69417;SDS011;56610;48.872;2.400;2023-07-13T07:30:33;4.43;;;1.40;;
69417;SDS011;56610;48.872;2.400;2023-07-13T07:32:59;5.20;;;1.63;;
69417;SDS011;56610;48.872;2.400;2023-07-13T07:35:24;2.97;;;1.40;;
69417;SDS011;56610;48.872;2.400;2023-07-13T07:37:50;6.00;;;1.60;;
69417;SDS011;56610;48.872;2.400;2023-07-13T07:40:15;5.20;;;1.58;;
69417;SDS011;56610;48.872;2.400;2023-07-13T07:42:41;5.22;;;1.50;;
69417;SDS011;56610;48.872;2.400;2023-07-13T07:45:07;4.70;;;1.63;;
69417;SDS011;56610;48.872;2.400;2023-07-13T07:47:32;4.20;;;1.52;;
69417;SDS011;56610;48.872;2.400;2023-07-13T07:49:58;4.97;;;1.63;;
69417;SDS011;56610;48.872;2.400;2023-07-13T07:52:24;4.13;;;1.30;;
69417;SDS011;56610;48.872;2.400;2023-07-13T07:54:49;5.68;;;1.60;;
69417;SDS011;56610;48.872;2.400;2023-07-13T07:57:15;4.15;;;1.45;;
69417;SDS011;56610;48.872;2.400;2023-07-13T07:59:40;5.53;;;1.45;;
69417;SDS011;56610;48.872;2.400;2023-07-13T08:02:06;3.42;;;1.40;;
69417;SDS011;56610;48.872;2.400;2023-07-13T08:04:33;5.93;;;1.63;;
69417;SDS011;56610;48.872;2.400;2023-07-13T08:06:59;3.40;;;1.30;;
69417;SDS011;56610;48.872;2.400;2023-07-13T08:09:27;5.68;;;1.60;;
69417;SDS011;56610;48.872;2.400;2023-07-13T08:11:53;4.75;;;1.60;;
69417;SDS011;56610;48.872;2.400;2023-07-13T08:14:19;8.07;;;1.65;;
69417;SDS011;56610;48.872;2.400;2023-07-13T08:16:45;7.65;;;1.40;;
69417;SDS011;56610;48.872;2.400;2023-07-13T08:19:11;5.43;;;1.55;;
69417;SDS011;56610;48.872;2.400;2023-07-13T08:21:37;7.25;;;1.77;;
69417;SDS011;56610;48.872;2.400;2023-07-13T08:24:02;5.15;;;1.75;;
69417;SDS011;56610;48.872;2.400;2023-07-13T08:26:28;3.08;;;1.48;;
69417;SDS011;56610;48.872;2.400;2023-07-13T08:28:54;3.42;;;1.42;;
69417;SDS011;56610;48.872;2.400;2023-07-13T08:31:19;4.50;;;1.48;;
69417;SDS011;56610;48.872;2.400;2023-07-13T08:33:45;4.40;;;1.60;;
69417;SDS011;56610;48.872;2.400;2023-07-13T08:36:11;4.03;;;1.75;;
69417;SDS011;56610;48.872;2.400;2023-07-13T08:38:36;4.30;;;1.48;;
69417;SDS011;56610;48.872;2.400;2023-07-13T08:41:05;4.45;;;1.85;;
69417;SDS011;56610;48.872;2.400;2023-07-13T08:43:39;3.70;;;1.38;;
69417;SDS011;56610;48.872;2.400;2023-07-13T08:46:26;5.43;;;1.70;;
69417;SDS011;56610;48.872;2.400;2023-07-13T08:49:02;4.18;;;1.30;;
69417;SDS011;56610;48.872;2.400;2023-07-13T08:51:50;3.83;;;1.35;;
69417;SDS011;56610;48.872;2.400;2023-07-13T08:56:46;3.10;;;1.27;;
69417;SDS011;56610;48.872;2.400;2023-07-13T08:59:15;3.70;;;1.55;;
69417;SDS011;56610;48.872;2.400;2023-07-13T09:04:41;6.28;;;1.50;;
69417;SDS011;56610;48.872;2.400;2023-07-13T09:10:05;3.13;;;1.33;;
69417;SDS011;56610;48.872;2.400;2023-07-13T09:15:39;5.28;;;1.45;;
69417;SDS011;56610;48.872;2.400;2023-07-13T09:18:10;3.75;;;1.20;;
69417;SDS011;56610;48.872;2.400;2023-07-13T09:20:51;3.22;;;1.00;;
69417;SDS011;56610;48.872;2.400;2023-07-13T09:23:20;3.40;;;1.50;;
69417;SDS011;56610;48.872;2.400;2023-07-13T09:25:48;5.38;;;1.50;;
69417;SDS011;56610;48.872;2.400;2023-07-13T09:33:52;3.72;;;1.13;;
69417;SDS011;56610;48.872;2.400;2023-07-13T09:36:23;4.78;;;1.92;;
69417;SDS011;56610;48.872;2.400;2023-07-13T09:39:01;3.75;;;1.02;;
69417;SDS011;56610;48.872;2.400;2023-07-13T09:44:18;2.38;;;0.90;;
69417;SDS011;56610;48.872;2.400;2023-07-13T09:47:21;1.73;;;0.80;;
69417;SDS011;56610;48.872;2.400;2023-07-13T09:49:59;3.80;;;1.25;;
69417;SDS011;56610;48.872;2.400;2023-07-13T09:52:27;2.20;;;1.00;;
69417;SDS011;56610;48.872;2.400;2023-07-13T09:57:29;3.50;;;1.10;;
69417;SDS011;56610;48.872;2.400;2023-07-13T09:59:56;2.45;;;1.05;;
69417;SDS011;56610;48.872;2.400;2023-07-13T10:02:33;3.53;;;1.77;;
69417;SDS011;56610;48.872;2.400;2023-07-13T10:05:07;5.63;;;1.58;;
69417;SDS011;56610;48.872;2.400;2023-07-13T10:07:41;3.72;;;1.40;;
69417;SDS011;56610;48.872;2.400;2023-07-13T10:10:27;3.67;;;1.58;;
69417;SDS011;56610;48.872;2.400;2023-07-13T10:12:53;2.83;;;1.33;;
69417;SDS011;56610;48.872;2.400;2023-07-13T10:15:22;3.53;;;1.30;;
69417;SDS011;56610;48.872;2.400;2023-07-13T10:17:53;2.08;;;1.00;;
69417;SDS011;56610;48.872;2.400;2023-07-13T10:20:21;3.92;;;1.20;;
69417;SDS011;56610;48.872;2.400;2023-07-13T10:23:04;2.15;;;1.10;;
69417;SDS011;56610;48.872;2.400;2023-07-13T10:25:38;4.63;;;1.30;;
69417;SDS011;56610;48.872;2.400;2023-07-13T10:30:46;3.22;;;1.40;;
69417;SDS011;56610;48.872;2.400;2023-07-13T10:33:13;2.67;;;1.10;;
69417;SDS011;56610;48.872;2.400;2023-07-13T10:35:40;3.30;;;1.35;;
69417;SDS011;56610;48.872;2.400;2023-07-13T10:38:13;3.40;;;1.15;;
69417;SDS011;56610;48.872;2.400;2023-07-13T10:40:49;4.72;;;1.50;;
69417;SDS011;56610;48.872;2.400;2023-07-13T10:43:40;2.85;;;1.05;;
69417;SDS011;56610;48.872;2.400;2023-07-13T10:46:10;4.85;;;1.50;;
69417;SDS011;56610;48.872;2.400;2023-07-13T10:48:37;2.25;;;1.30;;
69417;SDS011;56610;48.872;2.400;2023-07-13T10:51:05;2.03;;;0.98;;
69417;SDS011;56610;48.872;2.400;2023-07-13T10:53:33;3.75;;;1.20;;
69417;SDS011;56610;48.872;2.400;2023-07-13T10:56:22;1.83;;;0.90;;
69417;SDS011;56610;48.872;2.400;2023-07-13T11:01:49;3.88;;;1.02;;
69417;SDS011;56610;48.872;2.400;2023-07-13T11:06:50;3.47;;;1.40;;
69417;SDS011;56610;48.872;2.400;2023-07-13T11:09:39;2.75;;;1.40;;
69417;SDS011;56610;48.872;2.400;2023-07-13T11:12:07;4.03;;;1.17;;
69417;SDS011;56610;48.872;2.400;2023-07-13T11:14:44;3.35;;;0.95;;
69417;SDS011;56610;48.872;2.400;2023-07-13T11:20:39;2.42;;;1.20;;
69417;SDS011;56610;48.872;2.400;2023-07-13T11:23:16;6.20;;;1.58;;
69417;SDS011;56610;48.872;2.400;2023-07-13T11:25:44;2.72;;;1.20;;
69417;SDS011;56610;48.872;2.400;2023-07-13T11:30:48;3.38;;;1.27;;
69417;SDS011;56610;48.872;2.400;2023-07-13T11:33:25;2.42;;;1.23;;
69417;SDS011;56610;48.872;2.400;2023-07-13T11:36:15;2.78;;;1.10;;
69417;SDS011;56610;48.872;2.400;2023-07-13T11:39:29;4.43;;;1.23;;
69417;SDS011;56610;48.872;2.400;2023-07-13T11:41:45;2.80;;;1.20;;
69417;SDS011;56610;48.872;2.400;2023-07-13T11:44:21;2.15;;;1.10;;
69417;SDS011;56610;48.872;2.400;2023-07-13T11:46:53;4.95;;;1.48;;
69417;SDS011;56610;48.872;2.400;2023-07-13T11:49:21;3.75;;;1.35;;
69417;SDS011;56610;48.872;2.400;2023-07-13T11:51:49;3.00;;;1.23;;
69417;SDS011;56610;48.872;2.400;2023-07-13T11:54:32;2.42;;;1.20;;
69417;SDS011;56610;48.872;2.400;2023-07-13T11:57:28;2.97;;;1.25;;
69417;SDS011;56610;48.872;2.400;2023-07-13T12:00:00;2.63;;;1.20;;
69417;SDS011;56610;48.872;2.400;2023-07-13T12:02:38;1.67;;;0.93;;
69417;SDS011;56610;48.872;2.400;2023-07-13T12:05:09;2.58;;;0.90;;
69417;SDS011;56610;48.872;2.400;2023-07-13T12:07:37;3.45;;;1.27;;
69417;SDS011;56610;48.872;2.400;2023-07-13T12:10:24;3.03;;;1.20;;
69417;SDS011;56610;48.872;2.400;2023-07-13T12:15:28;2.05;;;1.00;;
69417;SDS011;56610;48.872;2.400;2023-07-13T12:17:58;1.75;;;0.80;;
69417;SDS011;56610;48.872;2.400;2023-07-13T12:20:25;2.33;;;1.02;;
69417;SDS011;56610;48.872;2.400;2023-07-13T12:22:55;1.88;;;0.88;;
69417;SDS011;56610;48.872;2.400;2023-07-13T12:25:28;2.90;;;1.02;;
69417;SDS011;56610;48.872;2.400;2023-07-13T12:27:55;2.25;;;0.90;;
69417;SDS011;56610;48.872;2.400;2023-07-13T12:32:59;1.70;;;1.00;;
69417;SDS011;56610;48.872;2.400;2023-07-13T12:35:26;2.08;;;1.05;;
69417;SDS011;56610;48.872;2.400;2023-07-13T12:37:54;4.38;;;1.77;;
69417;SDS011;56610;48.872;2.400;2023-07-13T12:40:26;3.88;;;1.20;;
69417;SDS011;56610;48.872;2.400;2023-07-13T12:42:57;2.25;;;1.30;;
69417;SDS011;56610;48.872;2.400;2023-07-13T12:45:27;2.47;;;1.00;;
69417;SDS011;56610;48.872;2.400;2023-07-13T12:47:58;2.70;;;1.17;;
69417;SDS011;56610;48.872;2.400;2023-07-13T12:50:46;2.20;;;1.20;;
69417;SDS011;56610;48.872;2.400;2023-07-13T12:53:16;1.58;;;1.00;;
69417;SDS011;56610;48.872;2.400;2023-07-13T12:55:46;2.42;;;0.77;;
69417;SDS011;56610;48.872;2.400;2023-07-13T12:58:21;2.72;;;1.15;;
69417;SDS011;56610;48.872;2.400;2023-07-13T13:00:53;2.35;;;0.88;;
69417;SDS011;56610;48.872;2.400;2023-07-13T13:05:56;1.75;;;0.93;;
69417;SDS011;56610;48.872;2.400;2023-07-13T13:08:24;1.10;;;0.75;;
69417;SDS011;56610;48.872;2.400;2023-07-13T13:10:50;1.20;;;0.90;;
69417;SDS011;56610;48.872;2.400;2023-07-13T13:13:15;1.20;;;0.93;;
69417;SDS011;56610;48.872;2.400;2023-07-13T13:15:41;2.63;;;1.00;;
69417;SDS011;56610;48.872;2.400;2023-07-13T13:18:17;2.03;;;1.20;;
69417;SDS011;56610;48.872;2.400;2023-07-13T13:20:44;1.25;;;0.80;;
69417;SDS011;56610;48.872;2.400;2023-07-13T13:23:12;3.87;;;0.90;;
69417;SDS011;56610;48.872;2.400;2023-07-13T13:25:43;2.08;;;1.10;;
69417;SDS011;56610;48.872;2.400;2023-07-13T13:28:14;1.88;;;0.80;;
69417;SDS011;56610;48.872;2.400;2023-07-13T13:30:45;1.50;;;0.80;;
69417;SDS011;56610;48.872;2.400;2023-07-13T13:33:12;1.90;;;1.33;;
69417;SDS011;56610;48.872;2.400;2023-07-13T13:35:41;1.73;;;0.80;;
69417;SDS011;56610;48.872;2.400;2023-07-13T13:38:17;1.48;;;0.90;;
69417;SDS011;56610;48.872;2.400;2023-07-13T13:40:45;1.95;;;1.00;;
69417;SDS011;56610;48.872;2.400;2023-07-13T13:45:44;2.28;;;0.95;;
69417;SDS011;56610;48.872;2.400;2023-07-13T13:48:15;3.38;;;0.90;;
69417;SDS011;56610;48.872;2.400;2023-07-13T13:50:43;2.22;;;0.95;;
69417;SDS011;56610;48.872;2.400;2023-07-13T13:53:12;2.10;;;0.88;;
69417;SDS011;56610;48.872;2.400;2023-07-13T13:55:38;2.50;;;1.02;;
69417;SDS011;56610;48.872;2.400;2023-07-13T13:58:07;2.25;;;0.90;;
69417;SDS011;56610;48.872;2.400;2023-07-13T14:00:34;1.77;;;1.00;;
69417;SDS011;56610;48.872;2.400;2023-07-13T14:03:00;2.67;;;1.17;;
69417;SDS011;56610;48.872;2.400;2023-07-13T14:05:26;1.65;;;1.10;;
69417;SDS011;56610;48.872;2.400;2023-07-13T14:07:52;1.45;;;1.10;;
69417;SDS011;56610;48.872;2.400;2023-07-13T14:10:19;1.52;;;0.93;;
69417;SDS011;56610;48.872;2.400;2023-07-13T14:12:45;2.15;;;0.93;;
69417;SDS011;56610;48.872;2.400;2023-07-13T14:15:28;2.10;;;1.00;;
69417;SDS011;56610;48.872;2.400;2023-07-13T14:17:58;3.08;;;0.90;;
69417;SDS011;56610;48.872;2.400;2023-07-13T14:20:24;1.38;;;1.10;;
69417;SDS011;56610;48.872;2.400;2023-07-13T14:22:51;2.17;;;1.00;;
69417;SDS011;56610;48.872;2.400;2023-07-13T14:25:18;2.83;;;1.00;;
69417;SDS011;56610;48.872;2.400;2023-07-13T14:27:49;3.47;;;1.38;;
69417;SDS011;56610;48.872;2.400;2023-07-13T14:30:19;1.65;;;1.30;;
69417;SDS011;56610;48.872;2.400;2023-07-13T14:32:46;2.20;;;1.13;;
69417;SDS011;56610;48.872;2.400;2023-07-13T14:35:16;2.28;;;1.00;;
69417;SDS011;56610;48.872;2.400;2023-07-13T14:37:43;2.72;;;1.23;;
69417;SDS011;56610;48.872;2.400;2023-07-13T14:40:19;2.03;;;1.00;;
69417;SDS011;56610;48.872;2.400;2023-07-13T14:42:51;1.55;;;1.00;;
69417;SDS011;56610;48.872;2.400;2023-07-13T14:45:17;1.80;;;1.10;;
69417;SDS011;56610;48.872;2.400;2023-07-13T14:47:45;2.35;;;1.20;;
69417;SDS011;56610;48.872;2.400;2023-07-13T14:50:19;1.20;;;1.00;;
69417;SDS011;56610;48.872;2.400;2023-07-13T14:52:57;3.22;;;1.20;;
69417;SDS011;56610;48.872;2.400;2023-07-13T14:55:23;3.08;;;1.17;;
69417;SDS011;56610;48.872;2.400;2023-07-13T14:57:51;1.40;;;1.00;;
69417;SDS011;56610;48.872;2.400;2023-07-13T15:00:20;1.65;;;1.15;;
69417;SDS011;56610;48.872;2.400;2023-07-13T15:02:48;2.85;;;1.00;;
69417;SDS011;56610;48.872;2.400;2023-07-13T15:05:17;2.38;;;1.10;;
69417;SDS011;56610;48.872;2.400;2023-07-13T15:07:57;1.15;;;1.00;;
69417;SDS011;56610;48.872;2.400;2023-07-13T15:10:26;1.15;;;0.90;;
69417;SDS011;56610;48.872;2.400;2023-07-13T15:12:57;2.70;;;1.15;;
69417;SDS011;56610;48.872;2.400;2023-07-13T15:15:26;2.58;;;1.10;;
69417;SDS011;56610;48.872;2.400;2023-07-13T15:17:54;1.75;;;1.08;;
69417;SDS011;56610;48.872;2.400;2023-07-13T15:22:50;2.17;;;1.08;;
69417;SDS011;56610;48.872;2.400;2023-07-13T15:25:19;3.15;;;1.38;;
69417;SDS011;56610;48.872;2.400;2023-07-13T15:27:47;2.20;;;1.30;;
69417;SDS011;56610;48.872;2.400;2023-07-13T15:30:13;2.03;;;1.13;;
69417;SDS011;56610;48.872;2.400;2023-07-13T15:32:39;2.28;;;1.40;;
69417;SDS011;56610;48.872;2.400;2023-07-13T15:35:12;2.83;;;1.50;;
69417;SDS011;56610;48.872;2.400;2023-07-13T15:37:49;1.90;;;1.30;;
69417;SDS011;56610;48.872;2.400;2023-07-13T15:40:16;2.17;;;1.25;;
69417;SDS011;56610;48.872;2.400;2023-07-13T15:42:42;1.95;;;1.25;;
69417;SDS011;56610;48.872;2.400;2023-07-13T15:45:20;2.22;;;1.23;;
69417;SDS011;56610;48.872;2.400;2023-07-13T15:47:47;1.40;;;1.08;;
69417;SDS011;56610;48.872;2.400;2023-07-13T15:50:17;2.15;;;1.23;;